Terminal Aerodrome Forecast
Issued by NWS

Home | Current Version | Previous Version | Text Only | Print | Product List | Glossary On
Versions: 1 2 3 4 5 6 7 8 9 10 11 12 13 14 15 16 17 18
000
FTUS43 KFGF 302300 RRA
TAFTVF
TAF
KTVF 302341Z 0100/0124 12015G22KT P6SM BKN060
     FM010200 13013G22KT P6SM BKN035
     FM010900 14013G20KT P6SM BKN025
     FM011200 16012G18KT P6SM BKN015
     FM011500 23015G23KT P6SM BKN025
     FM011900 24015G23KT P6SM BKN040
      AMD LTD TO CLD VIS AND WIND=

USA.gov is the U.S. government's official web portal to all federal, state and local government web resources and services.